Time;durP1;ratioP1;P1;durP2;ratioP2;P2;SDS_P1;SDS_P2;PMS_P1;PMS_P2;Temp;Humidity;BMP_temperature;BMP_pressure;BME280_temperature;BME280_humidity;BME280_pressure;Samples;Min_cycle;Max_cycle;Signal;HPM_P1;HPM_P2
2021/11/04 00:00:28;;;;;;;281.90;262.40;;;7.80;99.90;;;;;;5013338;28;20177;-88
2021/11/04 00:02:55;;;;;;;272.73;252.32;;;7.80;99.90;;;;;;5013361;28;20166;-88
2021/11/04 00:05:27;;;;;;;262.60;243.13;;;7.80;99.90;;;;;;5012525;28;20599;-88
2021/11/04 00:07:59;;;;;;;253.93;234.40;;;7.80;99.90;;;;;;5011967;28;20624;-88
2021/11/04 00:10:25;;;;;;;249.32;229.77;;;7.90;99.90;;;;;;5011967;28;20221;-88
2021/11/04 00:12:51;;;;;;;233.48;214.52;;;7.80;99.90;;;;;;5013401;28;20162;-88
2021/11/04 00:15:17;;;;;;;234.55;215.77;;;7.80;99.90;;;;;;5013226;28;20168;-88
2021/11/04 00:17:43;;;;;;;232.17;214.20;;;7.80;99.90;;;;;;5013218;28;20240;-88
2021/11/04 00:20:11;;;;;;;251.07;232.75;;;7.90;99.90;;;;;;5013162;28;20400;-88
2021/11/04 00:22:37;;;;;;;244.95;226.10;;;7.90;99.90;;;;;;5013716;28;20258;-88
2021/11/04 00:25:03;;;;;;;249.43;230.07;;;7.80;99.90;;;;;;5013194;28;20194;-88
2021/11/04 00:27:29;;;;;;;234.65;215.60;;;7.80;99.90;;;;;;5013182;28;20463;-88
2021/11/04 00:29:58;;;;;;;239.33;220.80;;;7.80;99.90;;;;;;5013193;28;20177;-87
2021/11/04 00:32:32;;;;;;;224.77;207.32;;;7.80;99.90;;;;;;5011989;28;20202;-88
2021/11/04 00:34:58;;;;;;;216.82;199.05;;;7.80;99.90;;;;;;5016405;28;20184;-88
2021/11/04 00:37:24;;;;;;;225.50;207.77;;;7.80;99.90;;;;;;5017100;28;20525;-88
2021/11/04 00:40:40;;;;;;;254.57;235.67;;;7.80;99.90;;;;;;5086844;23;20216;-84
2021/11/04 00:43:14;;;;;;;245.32;226.93;;;7.70;99.90;;;;;;5031665;28;20196;-84
2021/11/04 00:46:38;;;;;;;276.10;256.25;;;7.70;99.90;;;;;;5039924;28;20150;-84
2021/11/04 00:49:22;;;;;;;229.45;211.48;;;7.70;99.90;;;;;;4939756;28;20192;-85
2021/11/04 00:52:14;;;;;;;251.50;233.07;;;7.70;99.90;;;;;;4959327;29;20199;-85
2021/11/04 00:54:55;;;;;;;;;;;;;;;;;;;;;
2021/11/04 01:00:47;;;;;;;264.50;245.50;;;7.70;99.90;;;;;;5011446;28;20169;-84
2021/11/04 01:03:26;;;;;;;214.57;197.52;;;7.60;99.90;;;;;;5017919;28;20224;-85
2021/11/04 01:09:24;;;;;;;264.75;246.00;;;7.60;99.90;;;;;;5004047;28;20217;-84
2021/11/04 01:12:12;;;;;;;255.20;236.23;;;7.70;99.90;;;;;;5019500;28;20189;-84
2021/11/04 01:15:59;;;;;;;;;;;;;;;;;;;;;
2021/11/04 01:18:07;;;;;;;219.88;201.98;;;7.60;99.90;;;;;;5019742;28;20742;-84
2021/11/04 01:20:43;;;;;;;252.20;233.45;;;7.60;99.90;;;;;;5019686;28;20150;-84
2021/11/04 01:23:14;;;;;;;251.48;232.68;;;7.60;99.90;;;;;;5017797;28;20173;-84
2021/11/04 01:25:47;;;;;;;239.18;220.50;;;7.70;99.90;;;;;;5017604;28;20197;-85
2021/11/04 01:28:47;;;;;;;236.40;218.35;;;7.70;99.90;;;;;;5019193;28;20185;-84
2021/11/04 01:31:29;;;;;;;235.63;217.15;;;7.80;99.90;;;;;;5011103;28;20228;-84
2021/11/04 01:34:06;;;;;;;283.02;262.90;;;7.70;99.90;;;;;;5019167;28;20177;-84
2021/11/04 01:36:35;;;;;;;285.15;265.13;;;7.60;99.90;;;;;;5019022;28;20153;-84
2021/11/04 01:41:57;;;;;;;244.10;225.80;;;7.70;99.90;;;;;;5017872;28;20185;-84
2021/11/04 01:44:47;;;;;;;240.57;222.30;;;7.80;99.90;;;;;;5018407;28;20227;-84
2021/11/04 01:48:15;;;;;;;231.65;212.93;;;7.70;99.90;;;;;;5018213;28;20178;-84
2021/11/04 01:51:38;;;;;;;;;;;;;;;;;;;;;
2021/11/04 01:54:07;;;;;;;251.75;233.00;;;7.80;99.90;;;;;;4988639;28;20518;-84
2021/11/04 01:56:40;;;;;;;253.85;235.55;;;7.80;99.90;;;;;;5018311;28;20173;-84
2021/11/04 01:59:18;;;;;;;267.88;248.85;;;7.80;99.90;;;;;;5018126;28;20194;-84
2021/11/04 02:02:06;;;;;;;270.50;250.07;;;7.80;99.90;;;;;;5019090;28;20530;-84
2021/11/04 02:05:05;;;;;;;;;;;;;;;;;;;;;
2021/11/04 02:08:09;;;;;;;289.17;268.92;;;7.60;99.90;;;;;;5018755;28;20160;-85
2021/11/04 02:14:37;;;;;;;290.13;270.08;;;7.60;99.90;;;;;;5026429;28;20181;-84
2021/11/04 02:17:33;;;;;;;258.50;240.00;;;7.60;99.90;;;;;;5018535;28;20146;-84
2021/11/04 02:20:12;;;;;;;266.80;247.80;;;7.60;99.90;;;;;;5009198;28;20209;-84
2021/11/04 02:23:06;;;;;;;287.02;267.42;;;7.60;99.90;;;;;;5016462;28;20169;-84
2021/11/04 02:26:07;;;;;;;248.80;230.90;;;7.60;99.90;;;;;;5017851;28;20165;-84
2021/11/04 02:29:02;;;;;;;224.73;207.05;;;7.60;99.90;;;;;;5016775;28;20200;-84
2021/11/04 02:34:58;;;;;;;233.25;215.07;;;7.60;99.90;;;;;;5017653;28;20632;-84
2021/11/04 02:37:48;;;;;;;278.05;258.63;;;7.70;99.90;;;;;;5016120;28;20184;-84
2021/11/04 02:40:20;;;;;;;237.45;218.45;;;7.70;99.90;;;;;;5017844;28;20206;-84
2021/11/04 02:42:52;;;;;;;303.85;281.95;;;7.70;99.90;;;;;;5017656;28;20204;-84
2021/11/04 02:45:41;;;;;;;253.60;234.20;;;7.70;99.90;;;;;;5017200;28;20225;-84
2021/11/04 02:48:18;;;;;;;287.45;267.15;;;7.70;99.90;;;;;;5017560;28;20182;-84
2021/11/04 02:50:53;;;;;;;260.35;240.85;;;7.70;99.90;;;;;;5017545;28;20209;-84
2021/11/04 02:53:45;;;;;;;267.40;248.02;;;7.70;99.90;;;;;;5017644;28;20150;-84
2021/11/04 02:56:18;;;;;;;251.95;232.05;;;7.60;99.90;;;;;;5016600;28;20193;-84
2021/11/04 02:58:59;;;;;;;287.98;267.38;;;7.60;99.90;;;;;;5017124;28;20232;-84
2021/11/04 03:02:05;;;;;;;266.55;246.75;;;7.60;99.90;;;;;;5017149;28;20565;-84
2021/11/04 03:08:26;;;;;;;298.45;276.83;;;7.70;99.90;;;;;;4949313;28;20252;-84
2021/11/04 03:11:41;;;;;;;263.77;244.77;;;7.60;99.90;;;;;;5015799;28;20196;-84
2021/11/04 03:14:27;;;;;;;241.98;222.95;;;7.60;99.90;;;;;;5016956;28;20680;-84
2021/11/04 03:20:08;;;;;;;256.95;237.88;;;7.70;99.90;;;;;;5034504;28;20203;-84
2021/11/04 03:23:06;;;;;;;245.85;227.48;;;7.70;99.90;;;;;;5034650;28;20160;-84
2021/11/04 03:25:37;;;;;;;274.70;255.27;;;7.80;99.90;;;;;;5017307;28;20676;-84
2021/11/04 03:28:14;;;;;;;301.50;280.13;;;7.80;99.90;;;;;;5015346;28;20193;-83
2021/11/04 03:30:51;;;;;;;293.27;272.15;;;7.80;99.90;;;;;;5017024;28;20271;-84
2021/11/04 03:33:33;;;;;;;285.35;265.40;;;7.80;99.90;;;;;;5016983;28;20193;-84
2021/11/04 03:36:11;;;;;;;286.15;266.27;;;7.70;99.90;;;;;;5016821;28;20225;-84
2021/11/04 03:38:43;;;;;;;291.88;271.77;;;7.70;99.90;;;;;;5016233;28;20181;-84
2021/11/04 03:44:16;;;;;;;313.65;292.10;;;7.70;99.90;;;;;;5017050;28;20168;-84
2021/11/04 03:46:58;;;;;;;291.35;270.73;;;7.60;99.90;;;;;;5016527;28;20189;-83
2021/11/04 03:49:42;;;;;;;291.13;270.98;;;7.60;99.90;;;;;;5016707;28;20185;-84
2021/11/04 03:52:17;;;;;;;266.85;246.27;;;7.60;99.90;;;;;;5016347;28;20554;-85
2021/11/04 03:55:14;;;;;;;302.13;280.65;;;7.50;99.90;;;;;;5016517;28;20529;-84
2021/11/04 03:57:45;;;;;;;256.48;237.82;;;7.50;99.90;;;;;;5016602;28;20166;-84
2021/11/04 04:00:18;;;;;;;306.27;284.73;;;7.40;99.90;;;;;;5015181;28;20189;-84
2021/11/04 04:03:01;;;;;;;279.00;258.65;;;7.40;99.90;;;;;;5015638;28;20176;-84
2021/11/04 04:05:43;;;;;;;279.90;258.55;;;7.30;99.90;;;;;;5016777;28;20165;-85
2021/11/04 04:08:20;;;;;;;273.75;253.82;;;7.40;99.90;;;;;;5016674;28;20221;-84
2021/11/04 04:10:55;;;;;;;314.30;292.27;;;7.40;99.90;;;;;;5019102;28;20275;-84
2021/11/04 04:13:35;;;;;;;251.10;232.35;;;7.50;99.90;;;;;;5020523;28;20154;-84
2021/11/04 04:19:11;;;;;;;293.65;271.98;;;7.50;99.90;;;;;;5020651;28;20185;-84
2021/11/04 04:21:42;;;;;;;259.90;239.30;;;7.50;99.90;;;;;;5019171;28;20169;-84
2021/11/04 04:24:18;;;;;;;297.92;276.48;;;7.50;99.90;;;;;;5019398;28;20168;-84
2021/11/04 04:27:13;;;;;;;304.33;283.00;;;7.50;99.90;;;;;;5020945;28;20172;-84
2021/11/04 04:29:38;;;;;;;297.13;276.10;;;7.60;99.90;;;;;;5020009;28;20614;-84
2021/11/04 04:32:10;;;;;;;271.57;251.77;;;7.60;99.90;;;;;;5020159;28;20222;-84
2021/11/04 04:37:56;;;;;;;260.25;240.45;;;7.60;99.90;;;;;;4946013;28;20262;-84
2021/11/04 04:40:27;;;;;;;257.60;238.55;;;7.50;99.90;;;;;;5020292;28;20138;-84
2021/11/04 04:43:54;;;;;;;302.75;281.95;;;7.60;99.90;;;;;;5019739;28;20657;-84
2021/11/04 04:46:32;;;;;;;285.92;264.80;;;7.60;99.90;;;;;;5019887;28;20185;-84
2021/11/04 04:49:27;;;;;;;282.35;261.50;;;7.60;99.90;;;;;;5018658;28;20245;-84
2021/11/04 04:52:05;;;;;;;305.83;285.10;;;7.60;99.90;;;;;;5019254;28;20209;-84
2021/11/04 04:54:38;;;;;;;246.93;227.23;;;7.60;99.90;;;;;;5020344;28;20233;-83
2021/11/04 04:57:12;;;;;;;261.63;241.82;;;7.60;99.90;;;;;;5019716;28;20150;-84
2021/11/04 04:59:37;;;;;;;278.17;258.50;;;7.60;99.90;;;;;;5016557;28;20225;-84
2021/11/04 05:02:13;;;;;;;244.07;225.33;;;7.60;99.90;;;;;;5020050;28;20166;-84
2021/11/04 05:04:54;;;;;;;;;;;;;;;;;;;;;
2021/11/04 05:07:26;;;;;;;264.20;244.60;;;7.70;99.90;;;;;;5020004;28;20241;-84
2021/11/04 05:09:54;;;;;;;265.17;245.38;;;7.60;99.90;;;;;;5019224;28;20185;-83
2021/11/04 05:12:38;;;;;;;270.40;249.32;;;7.70;99.90;;;;;;5019218;28;20252;-84
2021/11/04 05:15:29;;;;;;;226.52;206.93;;;7.60;99.90;;;;;;5018685;28;20166;-83
2021/11/04 05:18:08;;;;;;;238.77;219.10;;;7.60;99.90;;;;;;5019305;28;20506;-83
2021/11/04 05:20:49;;;;;;;263.60;242.20;;;7.60;99.90;;;;;;5017247;28;20204;-84
2021/11/04 05:24:19;;;;;;;261.30;238.27;;;7.60;99.90;;;;;;5018877;28;20192;-84
2021/11/04 05:27:02;;;;;;;220.32;200.65;;;7.60;99.90;;;;;;4968253;28;20205;-85
2021/11/04 05:29:40;;;;;;;283.80;261.02;;;7.60;99.90;;;;;;5019158;28;20196;-84
2021/11/04 05:32:44;;;;;;;281.73;259.30;;;7.60;99.90;;;;;;5019662;28;20178;-84
2021/11/04 05:35:54;;;;;;;335.85;312.67;;;7.50;99.90;;;;;;5000769;28;20189;-84
2021/11/04 05:38:43;;;;;;;297.13;274.63;;;7.50;99.90;;;;;;5016820;28;20193;-84
2021/11/04 05:41:15;;;;;;;311.40;287.65;;;7.50;99.90;;;;;;5016865;28;20545;-84
2021/11/04 05:43:53;;;;;;;319.67;295.02;;;7.50;99.90;;;;;;5018881;28;20208;-84
2021/11/04 05:46:33;;;;;;;287.77;265.48;;;7.50;99.90;;;;;;5018867;28;20177;-84
2021/11/04 05:49:09;;;;;;;303.50;280.95;;;7.50;99.90;;;;;;5018750;28;20182;-84
2021/11/04 05:51:44;;;;;;;283.58;261.83;;;7.50;99.90;;;;;;5017559;28;20228;-84
2021/11/04 05:54:24;;;;;;;290.35;268.90;;;7.50;99.90;;;;;;5018820;28;20165;-84
2021/11/04 05:58:02;;;;;;;265.50;245.02;;;7.50;99.90;;;;;;5017578;28;20695;-84
2021/11/04 06:01:08;;;;;;;239.30;220.85;;;7.50;99.90;;;;;;4939337;29;20637;-84
2021/11/04 06:09:59;;;;;;;247.77;228.88;;;7.30;99.90;;;;;;5018537;28;20672;-84
2021/11/04 06:12:47;;;;;;;267.65;247.70;;;7.20;99.90;;;;;;5018466;28;20228;-84
2021/11/04 06:15:35;;;;;;;303.88;282.95;;;7.20;99.90;;;;;;5017205;28;20705;-84
2021/11/04 06:18:55;;;;;;;270.77;250.35;;;7.20;99.90;;;;;;5017186;28;20186;-84
2021/11/04 06:21:44;;;;;;;272.85;252.23;;;7.20;99.90;;;;;;4983632;28;20174;-84
2021/11/04 06:24:15;;;;;;;265.67;245.60;;;7.20;99.90;;;;;;5018540;28;20559;-84
2021/11/04 06:26:55;;;;;;;279.33;259.38;;;7.20;99.90;;;;;;5018733;28;20162;-84
2021/11/04 06:29:30;;;;;;;268.20;249.38;;;7.20;99.90;;;;;;5017358;28;20181;-84
2021/11/04 06:32:57;;;;;;;274.15;254.75;;;7.20;99.90;;;;;;5017596;28;20681;-84
2021/11/04 06:35:47;;;;;;;280.45;260.10;;;7.10;99.90;;;;;;4999756;28;20170;-84
2021/11/04 06:39:01;;;;;;;271.40;251.20;;;7.10;99.90;;;;;;5018022;28;20549;-83
2021/11/04 06:41:27;;;;;;;261.90;242.35;;;7.10;99.90;;;;;;5078020;22;20251;-87
2021/11/04 06:43:53;;;;;;;318.57;296.57;;;7.10;99.90;;;;;;5001970;28;20202;-86
2021/11/04 06:46:24;;;;;;;293.23;272.35;;;7.10;99.90;;;;;;5019484;28;20429;-87
2021/11/04 06:49:01;;;;;;;292.25;271.52;;;7.00;99.90;;;;;;5001908;28;20248;-87
2021/11/04 06:51:29;;;;;;;302.10;279.73;;;7.00;99.90;;;;;;5002992;28;20193;-87
2021/11/04 06:53:56;;;;;;;339.35;316.42;;;7.00;99.90;;;;;;5001087;28;20219;-87
2021/11/04 06:56:23;;;;;;;308.33;286.65;;;7.00;99.90;;;;;;5000641;28;20260;-86
2021/11/04 06:58:51;;;;;;;316.25;294.20;;;7.00;99.90;;;;;;5002156;28;20212;-87
2021/11/04 07:01:19;;;;;;;293.27;272.85;;;7.00;99.90;;;;;;5018687;28;20158;-86
2021/11/04 07:03:59;;;;;;;287.35;267.40;;;6.90;99.90;;;;;;5019315;28;20162;-87
2021/11/04 07:06:27;;;;;;;287.52;266.15;;;6.90;99.90;;;;;;5018487;28;20160;-86
2021/11/04 07:08:56;;;;;;;280.58;260.17;;;6.90;99.90;;;;;;5001264;28;20186;-87
2021/11/04 07:11:23;;;;;;;310.60;289.83;;;7.00;99.90;;;;;;5002322;28;20201;-86
2021/11/04 07:13:53;;;;;;;279.25;256.77;;;6.90;99.90;;;;;;5019771;28;20189;-88
2021/11/04 07:16:22;;;;;;;294.95;274.17;;;7.00;99.90;;;;;;5020674;28;20188;-88
2021/11/04 07:18:53;;;;;;;257.30;238.13;;;7.00;99.90;;;;;;5019523;28;20185;-88
2021/11/04 07:21:37;;;;;;;301.98;281.35;;;7.00;99.90;;;;;;5003239;28;20173;-88
2021/11/04 07:24:08;;;;;;;339.80;316.92;;;7.00;99.90;;;;;;5019776;28;20161;-88
2021/11/04 07:26:36;;;;;;;290.52;270.83;;;7.00;99.90;;;;;;5000155;28;20181;-88
2021/11/04 07:29:04;;;;;;;301.75;280.98;;;7.00;99.90;;;;;;5000312;28;20244;-89
2021/11/04 07:31:35;;;;;;;302.20;281.75;;;7.00;99.90;;;;;;5018496;28;20193;-87
2021/11/04 07:34:06;;;;;;;252.27;233.88;;;7.00;99.90;;;;;;4999985;28;20565;-89
2021/11/04 07:36:33;;;;;;;270.10;251.23;;;7.00;99.90;;;;;;4998563;28;20174;-88
2021/11/04 07:38:59;;;;;;;262.48;243.65;;;7.00;99.90;;;;;;5016414;28;20554;-85
2021/11/04 07:41:28;;;;;;;320.30;298.83;;;7.00;99.90;;;;;;5017666;28;20174;-88
2021/11/04 07:43:55;;;;;;;267.35;248.40;;;7.00;99.90;;;;;;5017344;28;20201;-86
2021/11/04 07:46:23;;;;;;;268.38;249.20;;;7.10;99.90;;;;;;5001301;28;20174;-85
2021/11/04 07:48:52;;;;;;;272.88;253.45;;;7.00;99.90;;;;;;5019218;28;20218;-86
2021/11/04 07:51:18;;;;;;;267.58;249.20;;;7.00;99.90;;;;;;5020323;28;20245;-86
2021/11/04 07:53:44;;;;;;;305.80;285.10;;;7.10;99.90;;;;;;5017673;28;20162;-86
2021/11/04 07:56:19;;;;;;;246.20;227.83;;;7.10;99.90;;;;;;5000511;28;20169;-88
2021/11/04 07:58:45;;;;;;;230.77;212.75;;;7.10;99.90;;;;;;5019178;28;20416;-86
2021/11/04 08:01:17;;;;;;;258.33;239.60;;;7.20;99.90;;;;;;5001588;28;20174;-87
2021/11/04 08:03:44;;;;;;;274.40;255.35;;;7.30;99.90;;;;;;5001648;28;20415;-87
2021/11/04 08:06:14;;;;;;;300.25;279.70;;;7.30;99.90;;;;;;5019960;28;20162;-87
2021/11/04 08:08:40;;;;;;;260.85;242.07;;;7.30;99.90;;;;;;5002772;28;20189;-88
2021/11/04 08:11:06;;;;;;;267.63;249.03;;;7.40;99.90;;;;;;5020049;28;20257;-88
2021/11/04 08:13:32;;;;;;;261.90;243.23;;;7.40;99.90;;;;;;5019008;28;20401;-88
2021/11/04 08:16:06;;;;;;;209.90;192.73;;;7.40;99.90;;;;;;5002481;28;20405;-88
2021/11/04 08:18:32;;;;;;;235.05;217.10;;;7.40;99.90;;;;;;5019369;28;20478;-88
2021/11/04 08:21:01;;;;;;;250.30;231.73;;;7.40;99.90;;;;;;5019025;28;20596;-88
2021/11/04 08:23:34;;;;;;;202.00;185.32;;;7.40;99.90;;;;;;5019372;28;20174;-87
2021/11/04 08:26:00;;;;;;;231.18;213.02;;;7.50;99.90;;;;;;5001838;28;20166;-86
2021/11/04 08:28:27;;;;;;;219.33;201.70;;;7.50;99.90;;;;;;5018708;28;20700;-87
2021/11/04 08:30:52;;;;;;;213.45;195.55;;;7.50;99.90;;;;;;5001535;28;20448;-87
2021/11/04 08:33:18;;;;;;;189.37;172.53;;;7.50;99.90;;;;;;4999608;28;20170;-87
2021/11/04 08:35:49;;;;;;;207.60;190.03;;;7.50;99.90;;;;;;5019002;28;20404;-88
2021/11/04 08:38:17;;;;;;;194.18;177.30;;;7.60;99.90;;;;;;5018356;28;20174;-87
2021/11/04 08:40:51;;;;;;;155.05;139.40;;;7.60;99.90;;;;;;5000183;28;20185;-88
2021/11/04 08:43:20;;;;;;;166.02;149.30;;;7.80;99.90;;;;;;4999559;28;20181;-87
2021/11/04 08:45:49;;;;;;;192.48;174.98;;;7.70;99.90;;;;;;5000716;28;20320;-87
2021/11/04 08:48:20;;;;;;;253.55;233.98;;;7.60;99.90;;;;;;5017476;28;20307;-88
2021/11/04 08:50:47;;;;;;;220.20;201.65;;;7.60;99.90;;;;;;5000707;28;20201;-87
2021/11/04 08:53:13;;;;;;;187.30;170.27;;;7.70;99.90;;;;;;5018265;28;20170;-87
2021/11/04 08:55:41;;;;;;;168.43;151.80;;;7.80;99.90;;;;;;5021299;28;20253;-87
2021/11/04 08:58:07;;;;;;;163.02;146.40;;;7.80;99.90;;;;;;5001645;28;20429;-87
2021/11/04 09:00:39;;;;;;;180.63;163.98;;;7.80;99.90;;;;;;5020353;28;20166;-87
2021/11/04 09:03:05;;;;;;;167.65;151.02;;;7.80;99.90;;;;;;5018956;28;20170;-87
2021/11/04 09:05:31;;;;;;;199.88;181.70;;;7.90;99.90;;;;;;5019735;28;20295;-87
2021/11/04 09:07:58;;;;;;;217.60;199.40;;;7.90;99.90;;;;;;5019014;28;20650;-87
2021/11/04 09:10:24;;;;;;;171.85;154.95;;;7.90;99.90;;;;;;5002789;28;20417;-87
2021/11/04 09:12:50;;;;;;;159.43;143.23;;;8.00;99.90;;;;;;5001172;28;20245;-87
2021/11/04 09:15:16;;;;;;;174.70;158.00;;;8.00;99.90;;;;;;5020237;28;20216;-87
2021/11/04 09:17:42;;;;;;;171.77;155.70;;;8.10;99.90;;;;;;5019391;28;20397;-87
2021/11/04 09:20:11;;;;;;;187.35;170.30;;;8.20;99.90;;;;;;5001714;28;20416;-87
2021/11/04 09:22:37;;;;;;;165.50;148.88;;;8.30;99.90;;;;;;5002212;28;20178;-87
2021/11/04 09:25:10;;;;;;;166.33;149.93;;;8.40;99.90;;;;;;5018170;28;20249;-87
2021/11/04 09:30:20;;;;;;;170.77;154.15;;;8.60;99.90;;;;;;5099482;22;20225;-88
2021/11/04 09:33:14;;;;;;;171.23;154.27;;;8.60;99.90;;;;;;5037045;28;20268;-87
2021/11/04 09:36:23;;;;;;;164.98;149.05;;;8.50;99.90;;;;;;5035315;28;20203;-87
2021/11/04 09:38:52;;;;;;;173.68;157.38;;;8.50;99.90;;;;;;4976422;28;20278;-87
2021/11/04 09:41:41;;;;;;;159.10;143.05;;;8.60;99.90;;;;;;5037398;28;20150;-89
2021/11/04 09:44:29;;;;;;;179.43;162.57;;;8.60;99.90;;;;;;5038304;28;20158;-88
2021/11/04 09:46:55;;;;;;;152.50;137.32;;;8.70;99.90;;;;;;5036047;28;20680;-87
2021/11/04 09:52:33;;;;;;;164.73;149.13;;;8.90;99.90;;;;;;5041110;28;20560;-87
2021/11/04 09:55:53;;;;;;;;;;;;;;;;;;;;;
2021/11/04 09:58:39;;;;;;;203.77;186.52;;;8.90;99.90;;;;;;4981328;28;20217;-88
2021/11/04 10:01:32;;;;;;;187.93;172.18;;;8.90;99.90;;;;;;4995089;28;20649;-87
2021/11/04 10:04:06;;;;;;;197.38;179.77;;;8.90;99.90;;;;;;4979656;28;20519;-87
2021/11/04 10:06:34;;;;;;;242.40;223.23;;;8.90;99.90;;;;;;5021932;28;20188;-87
2021/11/04 10:09:03;;;;;;;241.63;223.40;;;9.00;99.90;;;;;;5036846;28;20599;-88
2021/11/04 10:11:36;;;;;;;244.07;224.95;;;8.90;99.90;;;;;;5035976;28;20718;-87
2021/11/04 10:14:38;;;;;;;218.48;199.70;;;8.90;99.90;;;;;;5034878;28;20189;-88
2021/11/04 10:17:04;;;;;;;220.60;202.43;;;8.90;99.90;;;;;;5032499;28;20230;-87
2021/11/04 10:19:51;;;;;;;224.13;205.75;;;8.90;99.90;;;;;;5036465;28;20224;-87
2021/11/04 10:22:30;;;;;;;207.18;189.40;;;8.90;99.90;;;;;;5037421;28;20181;-87
2021/11/04 10:24:56;;;;;;;264.92;245.10;;;8.90;99.90;;;;;;5039059;28;20146;-87
2021/11/04 10:27:38;;;;;;;232.32;214.50;;;8.90;99.90;;;;;;5035789;28;20176;-87
2021/11/04 10:30:05;;;;;;;230.02;211.48;;;8.90;99.90;;;;;;5035689;28;20180;-87
2021/11/04 10:32:43;;;;;;;261.52;242.25;;;8.90;99.90;;;;;;5035003;28;20573;-87
2021/11/04 10:35:21;;;;;;;232.23;213.05;;;9.10;99.90;;;;;;5034263;28;20180;-87
2021/11/04 10:37:51;;;;;;;243.68;225.43;;;9.30;99.90;;;;;;5036944;28;20173;-86
2021/11/04 10:40:19;;;;;;;241.02;222.43;;;9.50;99.90;;;;;;5036613;28;20158;-87
2021/11/04 10:43:00;;;;;;;206.13;189.07;;;9.50;99.90;;;;;;5035047;28;20244;-87
2021/11/04 10:45:29;;;;;;;201.98;184.30;;;9.50;99.90;;;;;;5035777;28;20208;-87
2021/11/04 10:48:16;;;;;;;194.82;177.65;;;9.50;99.90;;;;;;5034600;28;20177;-87
2021/11/04 10:50:47;;;;;;;224.52;206.88;;;9.30;99.90;;;;;;5034767;28;20218;-87
2021/11/04 10:53:23;;;;;;;212.23;194.07;;;9.30;99.90;;;;;;5035539;28;20177;-87
2021/11/04 10:56:08;;;;;;;189.02;171.57;;;9.30;99.90;;;;;;5036673;28;20146;-87
2021/11/04 10:58:37;;;;;;;221.88;204.15;;;9.30;99.90;;;;;;5059978;23;20715;-87
2021/11/04 11:01:03;;;;;;;255.98;236.90;;;9.40;99.90;;;;;;5033634;28;20177;-87
2021/11/04 11:03:33;;;;;;;250.67;232.53;;;9.50;99.90;;;;;;5035401;28;20161;-88
2021/11/04 11:06:11;;;;;;;246.27;227.48;;;9.60;99.90;;;;;;5035932;28;20404;-87
2021/11/04 11:08:42;;;;;;;162.40;146.60;;;9.70;99.90;;;;;;5036783;28;20254;-88
2021/11/04 11:11:08;;;;;;;155.73;139.40;;;9.80;99.90;;;;;;5037283;28;20243;-87
2021/11/04 11:13:34;;;;;;;146.80;131.48;;;9.80;99.90;;;;;;5036252;28;20170;-87
2021/11/04 11:16:05;;;;;;;131.80;114.70;;;9.80;99.90;;;;;;5037041;28;20192;-87
2021/11/04 11:18:42;;;;;;;144.38;129.45;;;9.80;99.90;;;;;;5034469;28;20220;-87
2021/11/04 11:21:14;;;;;;;193.00;176.50;;;9.80;99.90;;;;;;5036091;28;20263;-87
2021/11/04 11:23:56;;;;;;;180.70;164.93;;;9.80;99.90;;;;;;5035288;28;20197;-87
2021/11/04 11:26:42;;;;;;;219.77;202.35;;;9.80;99.90;;;;;;5036572;28;20215;-87
2021/11/04 11:29:14;;;;;;;216.23;198.82;;;9.90;99.90;;;;;;5034917;28;20242;-87
2021/11/04 11:31:53;;;;;;;181.75;166.10;;;10.00;99.90;;;;;;5036013;28;20275;-88
2021/11/04 11:34:36;;;;;;;187.63;171.43;;;10.10;99.90;;;;;;5036118;28;20168;-86
2021/11/04 11:37:20;;;;;;;174.18;157.82;;;10.00;99.90;;;;;;5037963;28;20188;-87
2021/11/04 11:40:19;;;;;;;141.57;126.68;;;10.10;99.90;;;;;;5037695;28;20189;-87
2021/11/04 11:42:58;;;;;;;139.38;124.95;;;10.10;99.90;;;;;;5035756;28;20173;-86
2021/11/04 11:45:32;;;;;;;177.52;161.75;;;10.10;99.90;;;;;;5036039;28;20532;-87
2021/11/04 11:48:31;;;;;;;229.65;211.25;;;10.10;99.90;;;;;;5034460;28;20231;-87
2021/11/04 11:50:57;;;;;;;217.25;199.65;;;10.20;99.90;;;;;;5034898;28;20197;-87
2021/11/04 11:53:33;;;;;;;173.40;157.57;;;10.30;99.90;;;;;;5034155;28;20166;-87
2021/11/04 11:56:03;;;;;;;173.55;157.57;;;10.30;99.90;;;;;;5035234;28;20167;-87
2021/11/04 11:58:46;;;;;;;182.93;166.82;;;10.30;99.90;;;;;;5035442;28;20204;-87
2021/11/04 12:01:19;;;;;;;188.95;171.85;;;10.20;99.90;;;;;;5034872;28;20227;-87
2021/11/04 12:04:00;;;;;;;173.57;157.38;;;10.20;99.90;;;;;;5035101;28;20177;-86
2021/11/04 12:06:32;;;;;;;197.55;181.30;;;10.20;99.90;;;;;;5035352;28;20211;-86
2021/11/04 12:09:00;;;;;;;239.57;221.18;;;10.10;99.90;;;;;;5035946;28;20177;-86
2021/11/04 12:11:55;;;;;;;250.73;232.43;;;10.10;99.90;;;;;;5034964;28;20220;-86
2021/11/04 12:14:26;;;;;;;251.95;233.00;;;10.20;99.90;;;;;;5025251;28;20296;-86
2021/11/04 12:17:05;;;;;;;256.33;237.70;;;10.30;99.90;;;;;;5033471;28;20168;-86
2021/11/04 12:19:55;;;;;;;260.13;241.52;;;10.40;99.90;;;;;;5033751;28;20192;-86
2021/11/04 12:22:27;;;;;;;237.18;218.50;;;10.50;99.90;;;;;;5032927;28;20651;-86
2021/11/04 12:25:16;;;;;;;212.82;196.10;;;10.60;99.90;;;;;;5032343;28;20263;-87
2021/11/04 12:28:08;;;;;;;;;;;;;;;;;;;;;
2021/11/04 12:33:36;;;;;;;124.45;93.90;;;10.90;99.90;;;;;;5018460;28;20718;-87
2021/11/04 12:55:25;;;;;;;164.07;149.43;;;10.60;99.90;;;;;;5017463;28;20566;-87
2021/11/04 13:02:30;;;;;;;;;;;;;;;;;;;;;
2021/11/04 13:21:28;;;;;;;130.05;116.70;;;10.30;99.90;;;;;;5443864;22;20674;-87
2021/11/04 13:24:20;;;;;;;114.38;90.00;;;10.30;99.90;;;;;;5020215;28;20193;-87
2021/11/04 13:26:53;;;;;;;112.60;84.93;;;10.20;99.90;;;;;;4940886;29;20187;-87
2021/11/04 13:30:57;;;;;;;189.13;174.02;;;10.20;99.90;;;;;;5058424;23;20221;-87
2021/11/04 13:33:13;;;;;;;279.02;260.80;;;10.00;99.90;;;;;;5023122;28;20656;-87
2021/11/04 13:35:44;;;;;;;272.38;254.23;;;9.80;99.90;;;;;;5034674;28;20184;-87
2021/11/04 13:38:25;;;;;;;246.07;228.68;;;9.80;99.90;;;;;;5035399;28;20559;-87
2021/11/04 13:41:11;;;;;;;273.50;255.23;;;9.70;99.90;;;;;;5034152;28;20192;-87
2021/11/04 13:43:44;;;;;;;238.50;221.90;;;9.60;99.90;;;;;;5035461;28;20161;-87
2021/11/04 13:46:14;;;;;;;247.23;230.07;;;9.50;99.90;;;;;;5036513;28;20215;-88
2021/11/04 13:48:49;;;;;;;247.45;230.05;;;9.40;99.90;;;;;;5037624;28;20177;-87
2021/11/04 13:51:31;;;;;;;215.15;199.43;;;9.40;99.90;;;;;;5037156;28;20205;-87
2021/11/04 13:54:15;;;;;;;259.50;242.23;;;9.40;99.90;;;;;;5038821;28;20177;-87
2021/11/04 13:56:45;;;;;;;236.52;219.43;;;9.50;99.90;;;;;;5039459;28;20220;-88
2021/11/04 13:59:33;;;;;;;219.95;203.27;;;9.50;99.90;;;;;;5039890;28;20207;-87
2021/11/04 14:02:05;;;;;;;208.32;192.15;;;9.50;99.90;;;;;;5042304;28;20149;-87
2021/11/04 14:04:47;;;;;;;233.55;216.77;;;9.40;99.90;;;;;;5042012;28;20154;-88
2021/11/04 14:07:46;;;;;;;232.45;215.38;;;9.40;99.90;;;;;;5041856;28;20156;-88
2021/11/04 14:10:13;;;;;;;204.05;187.80;;;9.50;99.90;;;;;;5040160;28;20256;-87
2021/11/04 14:12:41;;;;;;;226.88;211.25;;;9.50;99.90;;;;;;5036182;28;20189;-87
2021/11/04 14:15:12;;;;;;;171.98;158.00;;;9.50;99.90;;;;;;5036108;28;20161;-87
2021/11/04 14:17:59;;;;;;;276.27;257.83;;;9.60;99.90;;;;;;5038525;28;20597;-87
2021/11/04 14:20:29;;;;;;;177.20;163.45;;;9.50;99.90;;;;;;5039432;28;20537;-87
2021/11/04 14:23:04;;;;;;;173.73;160.32;;;9.50;99.90;;;;;;5038655;28;20657;-87
2021/11/04 14:25:30;;;;;;;240.75;225.13;;;9.60;99.90;;;;;;5039160;28;20184;-87
2021/11/04 14:28:06;;;;;;;261.52;245.25;;;9.60;99.90;;;;;;5038718;28;20153;-87
2021/11/04 14:30:42;;;;;;;208.10;192.70;;;9.60;99.90;;;;;;5039009;28;20187;-87
2021/11/04 14:33:09;;;;;;;267.92;250.70;;;9.50;99.90;;;;;;5036331;28;20601;-87
2021/11/04 14:35:41;;;;;;;249.02;232.25;;;9.50;99.90;;;;;;5037333;28;20145;-87
2021/11/04 14:38:12;;;;;;;283.33;266.15;;;9.50;99.90;;;;;;5036062;28;20193;-87
2021/11/04 14:40:38;;;;;;;267.27;250.68;;;9.60;99.90;;;;;;5036488;28;20694;-87
2021/11/04 14:43:10;;;;;;;274.02;256.67;;;9.60;99.90;;;;;;5034133;28;20165;-87
2021/11/04 14:45:41;;;;;;;216.05;200.10;;;9.60;99.90;;;;;;5034639;28;20248;-87
2021/11/04 14:48:08;;;;;;;138.80;126.30;;;9.60;99.90;;;;;;5034867;28;20185;-87